Time;durP1;ratioP1;P1;durP2;ratioP2;P2;SDS_P1;SDS_P2;PMS_P1;PMS_P2;Temp;Humidity;BMP_temperature;BMP_pressure;BME280_temperature;BME280_humidity;BME280_pressure;Samples;Min_cycle;Max_cycle;Signal;HPM_P1;HPM_P2
2021/06/15 00:00:12;;;;;;;4.10;2.88;;;21.30;84.10;;;;;;5075084;28;20028;-67
2021/06/15 00:02:38;;;;;;;6.10;3.05;;;21.30;84.40;;;;;;5074585;28;20361;-75
2021/06/15 00:05:05;;;;;;;4.78;3.17;;;21.20;84.60;;;;;;5075007;28;20024;-67
2021/06/15 00:07:31;;;;;;;7.18;3.75;;;21.10;84.90;;;;;;5074917;28;20074;-66
2021/06/15 00:09:57;;;;;;;6.35;3.58;;;21.00;85.30;;;;;;5074193;28;20028;-67
2021/06/15 00:12:23;;;;;;;6.75;3.55;;;21.00;85.10;;;;;;5074868;28;20028;-66
2021/06/15 00:14:49;;;;;;;6.18;3.45;;;21.10;85.20;;;;;;5092218;28;20483;-67
2021/06/15 00:17:14;;;;;;;5.28;3.80;;;21.10;85.40;;;;;;5074445;28;20420;-67
2021/06/15 00:19:40;;;;;;;4.40;3.25;;;21.00;85.60;;;;;;5074114;28;20036;-67
2021/06/15 00:22:06;;;;;;;6.63;3.47;;;20.90;85.70;;;;;;5093041;28;20326;-66
2021/06/15 00:24:32;;;;;;;5.93;3.80;;;20.90;86.00;;;;;;5074544;28;20070;-66
2021/06/15 00:26:57;;;;;;;6.88;3.70;;;20.90;86.20;;;;;;5092405;28;20039;-67
2021/06/15 00:29:23;;;;;;;4.88;3.25;;;20.80;86.10;;;;;;5074286;28;20078;-67
2021/06/15 00:31:49;;;;;;;10.55;3.75;;;20.90;86.30;;;;;;5091890;28;20069;-67
2021/06/15 00:34:15;;;;;;;7.47;4.15;;;20.80;86.40;;;;;;5092343;28;20342;-67
2021/06/15 00:36:40;;;;;;;5.28;3.30;;;20.80;86.80;;;;;;5073806;28;20024;-70
2021/06/15 00:39:06;;;;;;;3.80;3.33;;;20.80;86.70;;;;;;5092131;28;20040;-67
2021/06/15 00:41:32;;;;;;;6.72;3.95;;;20.80;86.80;;;;;;5092058;28;20029;-66
2021/06/15 00:43:58;;;;;;;8.40;4.10;;;20.70;87.20;;;;;;5073616;28;20496;-67
2021/06/15 00:46:24;;;;;;;7.45;3.63;;;20.40;87.80;;;;;;5074271;28;20419;-66
2021/06/15 00:48:50;;;;;;;5.35;4.40;;;20.50;87.80;;;;;;5091812;28;20116;-66
2021/06/15 00:51:15;;;;;;;12.68;4.30;;;20.50;87.90;;;;;;5074042;28;20127;-66
2021/06/15 00:53:41;;;;;;;8.30;4.32;;;20.40;88.20;;;;;;5091952;28;20486;-77
2021/06/15 00:56:07;;;;;;;7.28;3.53;;;20.40;88.60;;;;;;5074143;28;20453;-68
2021/06/15 00:58:33;;;;;;;7.10;3.80;;;20.30;88.90;;;;;;5091916;28;20403;-68
2021/06/15 01:00:59;;;;;;;9.23;3.33;;;20.30;88.70;;;;;;5091638;28;20153;-66
2021/06/15 01:03:27;;;;;;;7.88;4.38;;;20.40;88.80;;;;;;5091741;28;20024;-68
2021/06/15 01:05:53;;;;;;;7.97;4.38;;;20.30;88.90;;;;;;5072998;28;20020;-67
2021/06/15 01:08:40;;;;;;;14.68;3.88;;;20.40;88.80;;;;;;5091730;28;20028;-67
2021/06/15 01:11:31;;;;;;;7.43;3.78;;;20.30;89.00;;;;;;5091561;28;20135;-68
2021/06/15 01:14:14;;;;;;;8.27;3.90;;;20.30;89.30;;;;;;5091500;28;20377;-67
2021/06/15 01:16:55;;;;;;;10.25;3.65;;;20.30;89.30;;;;;;5091553;28;20485;-67
2021/06/15 01:19:40;;;;;;;5.30;3.88;;;20.30;89.20;;;;;;5091928;28;20040;-67
2021/06/15 01:22:29;;;;;;;7.65;3.78;;;20.20;89.40;;;;;;5072881;28;20032;-67
2021/06/15 01:25:07;;;;;;;5.95;3.38;;;20.20;89.40;;;;;;5090881;28;20039;-67
2021/06/15 01:27:51;;;;;;;7.88;4.13;;;20.30;89.30;;;;;;5092205;28;20042;-67
2021/06/15 01:30:22;;;;;;;11.20;4.80;;;20.30;89.00;;;;;;5073394;28;20131;-67
2021/06/15 01:32:59;;;;;;;6.80;4.13;;;20.30;88.60;;;;;;5091094;28;20039;-68
2021/06/15 01:35:28;;;;;;;6.47;4.82;;;20.20;88.80;;;;;;5073376;28;20070;-67
2021/06/15 01:37:59;;;;;;;5.50;3.88;;;20.20;88.90;;;;;;5072543;28;20448;-68
2021/06/15 01:40:39;;;;;;;6.63;4.68;;;20.20;89.00;;;;;;5072403;28;20477;-68
2021/06/15 01:43:13;;;;;;;3.97;2.92;;;20.00;89.40;;;;;;5072724;28;20240;-67
2021/06/15 01:45:45;;;;;;;5.80;3.35;;;20.10;89.50;;;;;;5073464;28;20028;-68
2021/06/15 01:48:21;;;;;;;6.65;4.15;;;20.10;89.40;;;;;;5091567;28;20067;-67
2021/06/15 01:50:48;;;;;;;9.27;3.65;;;20.10;89.20;;;;;;5072617;28;20032;-68
2021/06/15 01:53:19;;;;;;;6.25;4.15;;;20.10;89.10;;;;;;5091522;28;20035;-67
2021/06/15 01:55:49;;;;;;;5.00;3.42;;;20.10;89.10;;;;;;5072899;28;20104;-80
2021/06/15 01:58:16;;;;;;;8.10;4.63;;;20.20;88.90;;;;;;5073184;28;20493;-69
2021/06/15 02:00:43;;;;;;;5.45;3.78;;;20.20;89.20;;;;;;5073019;28;20024;-67
2021/06/15 02:03:11;;;;;;;10.15;4.20;;;20.10;89.00;;;;;;5090303;28;20028;-67
2021/06/15 02:05:45;;;;;;;7.60;3.70;;;20.10;88.80;;;;;;5073052;28;20051;-68
2021/06/15 02:08:15;;;;;;;9.18;4.18;;;20.10;88.90;;;;;;5073248;28;20078;-68
2021/06/15 02:10:41;;;;;;;6.40;3.35;;;20.10;89.00;;;;;;5091438;28;20039;-68
2021/06/15 02:13:08;;;;;;;4.40;3.53;;;20.10;89.00;;;;;;5090971;28;20028;-68
2021/06/15 02:15:34;;;;;;;8.20;4.78;;;20.00;89.30;;;;;;5072697;28;20442;-67
2021/06/15 02:18:01;;;;;;;8.50;3.90;;;20.00;89.40;;;;;;5090335;28;20127;-68
2021/06/15 02:20:30;;;;;;;10.85;3.80;;;20.00;89.50;;;;;;5072203;28;20039;-67
2021/06/15 02:23:01;;;;;;;9.55;4.13;;;20.00;89.60;;;;;;5090166;28;20031;-67
2021/06/15 02:25:30;;;;;;;6.60;3.80;;;19.80;90.00;;;;;;5090962;28;20043;-67
2021/06/15 02:27:56;;;;;;;5.55;3.92;;;19.70;90.00;;;;;;5089967;28;20036;-67
2021/06/15 02:30:24;;;;;;;5.95;4.13;;;19.80;90.00;;;;;;5072787;28;20362;-67
2021/06/15 02:32:51;;;;;;;5.70;3.80;;;19.70;89.90;;;;;;5089967;28;20032;-68
2021/06/15 02:35:21;;;;;;;5.95;3.97;;;19.90;89.60;;;;;;5072375;28;20529;-68
2021/06/15 02:38:02;;;;;;;8.15;4.00;;;19.80;89.90;;;;;;5072252;28;20547;-78
2021/06/15 02:40:31;;;;;;;6.72;4.10;;;19.80;89.90;;;;;;5090772;28;20059;-67
2021/06/15 02:42:58;;;;;;;11.88;3.05;;;19.80;89.50;;;;;;5090096;28;20453;-68
2021/06/15 02:45:30;;;;;;;6.70;3.92;;;19.70;89.60;;;;;;5072577;28;20046;-67
2021/06/15 02:47:59;;;;;;;4.45;3.38;;;19.60;90.00;;;;;;5089577;28;20036;-67
2021/06/15 02:50:27;;;;;;;8.30;4.43;;;19.50;90.20;;;;;;5090329;28;20085;-67
2021/06/15 02:53:04;;;;;;;8.23;4.35;;;19.40;90.40;;;;;;5094332;28;20105;-70
2021/06/15 02:55:45;;;;;;;7.82;5.35;;;19.50;90.40;;;;;;5094591;28;20031;-67
2021/06/15 02:58:10;;;;;;;9.43;4.95;;;19.60;90.40;;;;;;5094008;28;20024;-68
2021/06/15 03:00:36;;;;;;;6.57;5.07;;;19.50;90.40;;;;;;5094782;28;20034;-68
2021/06/15 03:03:05;;;;;;;9.35;5.43;;;19.60;90.50;;;;;;5093792;28;20131;-69
2021/06/15 03:05:31;;;;;;;7.50;6.03;;;19.60;90.50;;;;;;5076375;28;20047;-68
2021/06/15 03:07:57;;;;;;;8.88;5.55;;;19.50;90.90;;;;;;5094244;28;20020;-68
2021/06/15 03:10:24;;;;;;;12.70;6.03;;;19.50;91.00;;;;;;5076037;28;20036;-67
2021/06/15 03:13:10;;;;;;;7.25;5.43;;;19.50;90.70;;;;;;5093642;28;20372;-74
2021/06/15 03:15:45;;;;;;;8.48;4.72;;;19.50;90.70;;;;;;5094205;28;20063;-68
2021/06/15 03:18:20;;;;;;;5.65;4.55;;;19.60;90.70;;;;;;5074866;28;20049;-68
2021/06/15 03:20:48;;;;;;;8.98;4.47;;;19.60;90.60;;;;;;5094182;28;20031;-68
2021/06/15 03:23:18;;;;;;;8.07;4.78;;;19.60;90.50;;;;;;5093594;28;20461;-68
2021/06/15 03:25:43;;;;;;;8.20;4.28;;;19.50;90.40;;;;;;5094206;28;20035;-68
2021/06/15 03:28:17;;;;;;;10.90;5.10;;;19.40;90.50;;;;;;5075028;28;20032;-68
2021/06/15 03:30:45;;;;;;;6.57;3.78;;;19.40;90.70;;;;;;5094228;28;20101;-68
2021/06/15 03:33:14;;;;;;;5.57;3.55;;;19.50;90.30;;;;;;5075175;28;20030;-69
2021/06/15 03:35:43;;;;;;;9.40;3.75;;;19.40;90.20;;;;;;5075751;28;20047;-68
2021/06/15 03:38:11;;;;;;;7.55;4.10;;;19.40;90.20;;;;;;5074871;28;20060;-69
2021/06/15 03:40:42;;;;;;;5.68;3.53;;;19.40;90.40;;;;;;5075458;28;20036;-68
2021/06/15 03:43:09;;;;;;;5.60;3.67;;;19.40;90.30;;;;;;5093383;28;20026;-68
2021/06/15 03:45:41;;;;;;;7.53;4.15;;;19.40;90.60;;;;;;5093867;28;20317;-69
2021/06/15 03:48:08;;;;;;;7.32;4.00;;;19.40;90.70;;;;;;5074771;28;20116;-69
2021/06/15 03:50:34;;;;;;;4.40;3.30;;;19.30;90.80;;;;;;5075832;28;20032;-69
2021/06/15 03:53:04;;;;;;;5.15;3.20;;;19.40;90.60;;;;;;5074911;28;20476;-68
2021/06/15 03:55:31;;;;;;;6.82;3.35;;;19.50;90.60;;;;;;5093271;28;20034;-69
2021/06/15 03:58:01;;;;;;;4.50;2.75;;;19.40;90.90;;;;;;5074767;28;20088;-68
2021/06/15 04:00:28;;;;;;;4.63;3.10;;;19.40;90.90;;;;;;5075071;28;20059;-68
2021/06/15 04:03:01;;;;;;;4.97;3.30;;;19.50;90.90;;;;;;5092132;28;20035;-68
2021/06/15 04:05:29;;;;;;;7.30;3.03;;;19.50;90.80;;;;;;5093399;28;20073;-68
2021/06/15 04:08:01;;;;;;;7.68;4.13;;;19.50;90.70;;;;;;5074034;28;20020;-69
2021/06/15 04:10:28;;;;;;;8.52;3.42;;;19.50;90.80;;;;;;5075042;28;20453;-68
2021/06/15 04:12:55;;;;;;;6.13;2.55;;;19.60;90.70;;;;;;5074630;28;20430;-71
2021/06/15 04:15:25;;;;;;;3.88;2.88;;;19.60;90.70;;;;;;5093279;28;20024;-68
2021/06/15 04:17:55;;;;;;;4.40;3.05;;;19.70;90.70;;;;;;5074540;28;20128;-70
2021/06/15 04:20:34;;;;;;;3.72;2.65;;;19.70;90.50;;;;;;5093070;28;20051;-68
2021/06/15 04:23:03;;;;;;;3.83;3.22;;;19.60;90.70;;;;;;5073971;28;20035;-69
2021/06/15 04:25:34;;;;;;;5.03;2.72;;;19.50;90.80;;;;;;5074752;28;20021;-68
2021/06/15 04:28:02;;;;;;;7.88;3.17;;;19.50;90.90;;;;;;5074143;28;20571;-69
2021/06/15 04:30:30;;;;;;;8.80;2.83;;;19.50;91.00;;;;;;5074655;28;20032;-68
2021/06/15 04:32:56;;;;;;;6.82;3.25;;;19.60;90.90;;;;;;5073884;28;20531;-69
2021/06/15 04:35:27;;;;;;;7.65;3.20;;;19.70;90.70;;;;;;5074596;28;20324;-68
2021/06/15 04:37:57;;;;;;;3.65;2.35;;;19.80;90.70;;;;;;5074677;28;20027;-69
2021/06/15 04:40:34;;;;;;;5.22;2.53;;;19.80;90.80;;;;;;5074628;28;20063;-68
2021/06/15 04:43:09;;;;;;;5.95;2.60;;;19.90;90.70;;;;;;5091768;28;20043;-68
2021/06/15 04:45:42;;;;;;;7.63;2.70;;;20.00;90.60;;;;;;5074510;28;20127;-68
2021/06/15 04:48:11;;;;;;;8.35;3.05;;;20.00;90.70;;;;;;5073286;28;20123;-69
2021/06/15 04:50:37;;;;;;;5.68;3.28;;;20.10;90.60;;;;;;5074134;28;20123;-68
2021/06/15 04:53:04;;;;;;;5.45;3.30;;;20.00;90.60;;;;;;5092000;28;20021;-69
2021/06/15 04:55:34;;;;;;;6.43;3.15;;;20.10;90.70;;;;;;5074329;28;20024;-68
2021/06/15 04:58:02;;;;;;;5.18;3.20;;;20.10;90.70;;;;;;5073468;28;20028;-69
2021/06/15 05:00:29;;;;;;;7.47;2.95;;;20.10;90.80;;;;;;5074075;28;20028;-70
2021/06/15 05:02:58;;;;;;;7.63;3.03;;;20.10;90.60;;;;;;5073410;28;20028;-69
2021/06/15 05:05:26;;;;;;;8.88;2.97;;;20.10;91.00;;;;;;5073601;28;20028;-69
2021/06/15 05:08:14;;;;;;;5.38;2.97;;;20.20;90.50;;;;;;5073492;28;20456;-68
2021/06/15 05:10:42;;;;;;;8.57;2.88;;;20.30;90.50;;;;;;5091896;28;20020;-68
2021/06/15 05:13:10;;;;;;;4.72;2.70;;;20.40;90.30;;;;;;5091104;28;20428;-68
2021/06/15 05:15:41;;;;;;;4.80;2.70;;;20.40;90.20;;;;;;5091831;28;20185;-68
2021/06/15 05:18:07;;;;;;;6.88;3.17;;;20.30;89.90;;;;;;5072228;28;20096;-68
2021/06/15 05:20:33;;;;;;;5.75;3.42;;;20.20;90.20;;;;;;5091353;28;20052;-68
2021/06/15 05:23:31;;;;;;;11.13;2.92;;;20.30;90.30;;;;;;5072542;28;20020;-69
2021/06/15 05:25:57;;;;;;;6.53;2.97;;;20.40;90.30;;;;;;5086482;28;20040;-68
2021/06/15 05:28:22;;;;;;;4.80;3.20;;;20.60;90.00;;;;;;5073329;28;20024;-68
2021/06/15 05:30:48;;;;;;;7.55;3.40;;;20.60;90.00;;;;;;5072782;28;20354;-68
2021/06/15 05:33:14;;;;;;;7.60;3.33;;;20.50;90.00;;;;;;5090854;28;20020;-68
2021/06/15 05:35:40;;;;;;;8.60;3.38;;;20.30;90.20;;;;;;5091423;28;20028;-68
2021/06/15 05:38:10;;;;;;;7.32;3.35;;;20.50;90.00;;;;;;5072326;28;20055;-68
2021/06/15 05:40:36;;;;;;;13.45;3.65;;;20.60;89.40;;;;;;5090863;28;20187;-69
2021/06/15 05:43:02;;;;;;;10.18;3.83;;;20.60;89.50;;;;;;5071834;28;20081;-69
2021/06/15 05:45:28;;;;;;;8.75;3.65;;;20.80;89.80;;;;;;5090869;28;20054;-69
2021/06/15 05:47:54;;;;;;;12.50;3.30;;;20.90;89.30;;;;;;5072293;28;20123;-70
2021/06/15 05:50:19;;;;;;;15.50;3.90;;;21.10;89.00;;;;;;5090300;28;20031;-69
2021/06/15 05:52:45;;;;;;;5.97;2.88;;;21.10;89.00;;;;;;5090450;28;20080;-69
2021/06/15 05:55:12;;;;;;;7.38;3.55;;;21.20;88.00;;;;;;5090518;28;20475;-68
2021/06/15 05:57:39;;;;;;;7.72;3.30;;;21.30;88.10;;;;;;5072723;28;20050;-69
2021/06/15 06:00:08;;;;;;;6.00;3.35;;;21.20;87.60;;;;;;5071719;28;20024;-71
2021/06/15 06:02:34;;;;;;;5.70;3.25;;;20.90;88.10;;;;;;5072639;28;20081;-69
2021/06/15 06:10:11;;;;;;;9.13;4.20;;;21.10;88.30;;;;;;5090335;28;20062;-69
2021/06/15 06:12:38;;;;;;;10.40;3.72;;;21.30;88.00;;;;;;5090191;28;20450;-68
2021/06/15 06:15:07;;;;;;;11.55;4.88;;;21.30;87.70;;;;;;5071362;28;20482;-69
2021/06/15 06:17:33;;;;;;;7.88;4.10;;;21.40;88.00;;;;;;5090219;28;20083;-68
2021/06/15 06:19:59;;;;;;;8.73;3.88;;;21.60;87.70;;;;;;5071800;28;20032;-68
2021/06/15 06:22:24;;;;;;;7.35;3.30;;;21.70;87.80;;;;;;5089443;28;20059;-69
2021/06/15 06:24:50;;;;;;;8.95;2.88;;;21.80;87.20;;;;;;5090647;28;20141;-68
2021/06/15 06:27:16;;;;;;;9.05;4.05;;;21.70;86.20;;;;;;5070974;28;20065;-70
2021/06/15 06:29:42;;;;;;;6.30;2.85;;;21.50;86.70;;;;;;5071991;28;20028;-69
2021/06/15 06:32:08;;;;;;;11.20;3.28;;;21.60;87.10;;;;;;5071546;28;20020;-69
2021/06/15 06:34:34;;;;;;;9.73;3.40;;;21.80;86.80;;;;;;5090329;28;20024;-69
2021/06/15 06:37:00;;;;;;;6.80;3.40;;;21.90;87.40;;;;;;5090163;28;20452;-68
2021/06/15 06:39:26;;;;;;;6.22;3.42;;;22.00;87.30;;;;;;5071631;28;20402;-69
2021/06/15 06:41:51;;;;;;;6.55;3.45;;;21.90;87.00;;;;;;5090516;28;20036;-69
2021/06/15 06:44:18;;;;;;;4.50;2.40;;;22.00;87.30;;;;;;5071665;28;20031;-68
2021/06/15 06:46:43;;;;;;;3.95;2.10;;;22.00;88.00;;;;;;5071536;28;20054;-56
2021/06/15 06:49:09;;;;;;;3.70;1.95;;;22.20;90.20;;;;;;5070033;28;20055;-56
2021/06/15 06:51:35;;;;;;;3.53;1.92;;;22.80;89.20;;;;;;5076337;28;20099;-56
2021/06/15 06:54:01;;;;;;;10.23;2.50;;;23.20;88.00;;;;;;5069482;28;20099;-55
2021/06/15 06:56:28;;;;;;;24.17;3.53;;;23.40;87.10;;;;;;5068632;28;20035;-55
2021/06/15 06:58:54;;;;;;;4.88;2.28;;;23.60;86.20;;;;;;5051583;28;20207;-56
2021/06/15 07:01:21;;;;;;;3.45;2.70;;;23.80;85.80;;;;;;5083144;28;20040;-55
2021/06/15 07:03:48;;;;;;;8.52;2.55;;;23.90;85.50;;;;;;5091246;28;20020;-55
2021/06/15 07:06:14;;;;;;;5.22;2.92;;;24.00;85.10;;;;;;5075399;28;20453;-54
2021/06/15 07:08:40;;;;;;;4.03;2.72;;;24.20;84.80;;;;;;5051278;28;20419;-55
2021/06/15 07:11:05;;;;;;;7.03;3.17;;;24.20;84.40;;;;;;5069000;28;20029;-55
2021/06/15 07:13:31;;;;;;;11.05;3.08;;;24.40;84.60;;;;;;5069257;28;20063;-56
2021/06/15 07:15:57;;;;;;;10.82;2.78;;;24.40;84.00;;;;;;5051602;28;20020;-54
2021/06/15 07:18:23;;;;;;;4.35;2.28;;;24.40;83.00;;;;;;5072393;28;20267;-55
2021/06/15 07:20:48;;;;;;;5.00;1.98;;;24.50;83.60;;;;;;5079018;28;20028;-54
2021/06/15 07:23:14;;;;;;;3.63;2.38;;;24.60;83.10;;;;;;5084440;28;20389;-54
2021/06/15 07:25:40;;;;;;;2.75;1.98;;;24.40;83.00;;;;;;5051530;28;20135;-55
2021/06/15 07:28:06;;;;;;;6.15;2.20;;;24.60;83.00;;;;;;5068572;28;20033;-56
2021/06/15 07:30:32;;;;;;;11.57;2.03;;;24.60;82.60;;;;;;5085080;28;20144;-55
2021/06/15 07:32:58;;;;;;;5.50;2.92;;;24.60;81.80;;;;;;5084133;28;20109;-52
2021/06/15 07:35:25;;;;;;;5.18;2.30;;;24.70;82.90;;;;;;5069139;28;20197;-52
2021/06/15 07:37:51;;;;;;;7.95;2.53;;;24.80;81.40;;;;;;5085218;28;20024;-54
2021/06/15 07:40:23;;;;;;;7.47;3.03;;;24.90;82.10;;;;;;5072210;28;20078;-53
2021/06/15 07:42:55;;;;;;;8.85;2.72;;;25.00;81.20;;;;;;5055077;28;20101;-52
2021/06/15 07:45:22;;;;;;;7.68;2.58;;;25.00;80.60;;;;;;5072403;28;20028;-52
2021/06/15 07:47:48;;;;;;;6.45;2.78;;;25.20;80.50;;;;;;5053933;28;20047;-62
2021/06/15 07:50:15;;;;;;;6.25;2.65;;;25.20;80.10;;;;;;5089529;28;20036;-53
2021/06/15 07:52:41;;;;;;;6.97;2.42;;;25.30;80.80;;;;;;5074575;28;20364;-52
2021/06/15 07:55:07;;;;;;;6.53;2.20;;;25.40;79.80;;;;;;5091418;28;20369;-55
2021/06/15 07:57:33;;;;;;;6.82;2.75;;;25.50;79.90;;;;;;5071839;28;20052;-54
2021/06/15 07:59:59;;;;;;;7.47;2.38;;;25.50;79.00;;;;;;5074496;28;20059;-54
2021/06/15 08:02:25;;;;;;;9.00;3.03;;;25.40;79.10;;;;;;5091948;28;20028;-53
2021/06/15 08:04:50;;;;;;;6.78;2.25;;;25.40;79.80;;;;;;5091416;28;20055;-52
2021/06/15 08:07:16;;;;;;;15.93;3.35;;;25.20;79.00;;;;;;5073154;28;20028;-52
2021/06/15 08:09:42;;;;;;;6.03;2.20;;;25.50;79.60;;;;;;5092746;28;20051;-54
2021/06/15 08:12:08;;;;;;;11.68;2.83;;;25.60;79.30;;;;;;5073919;28;20024;-62
2021/06/15 08:14:33;;;;;;;6.15;2.30;;;25.70;79.10;;;;;;5091748;28;20024;-52
2021/06/15 08:16:59;;;;;;;2.83;2.08;;;25.50;78.30;;;;;;5092830;28;20032;-54
2021/06/15 08:19:26;;;;;;;3.45;2.10;;;25.30;78.60;;;;;;5089936;28;20071;-52
2021/06/15 08:21:52;;;;;;;4.90;2.55;;;25.40;77.40;;;;;;5073778;28;20124;-53
2021/06/15 08:24:18;;;;;;;3.10;1.90;;;25.40;77.60;;;;;;5091445;28;20058;-53
2021/06/15 08:26:44;;;;;;;6.43;2.13;;;25.80;77.30;;;;;;5073893;28;20024;-53
2021/06/15 08:29:10;;;;;;;6.00;2.03;;;26.00;77.40;;;;;;5069880;28;20028;-60
2021/06/15 08:31:36;;;;;;;6.47;2.33;;;26.10;76.40;;;;;;5053630;28;20043;-54
2021/06/15 08:34:03;;;;;;;4.35;2.70;;;26.00;76.30;;;;;;5054592;28;20025;-53
2021/06/15 08:36:29;;;;;;;8.68;3.33;;;26.30;76.30;;;;;;5071731;28;20260;-53
2021/06/15 08:38:56;;;;;;;4.05;2.22;;;26.60;75.10;;;;;;5071122;28;20032;-54
2021/06/15 08:41:22;;;;;;;4.65;2.42;;;26.70;75.60;;;;;;5071355;28;20084;-53
2021/06/15 08:43:48;;;;;;;6.43;2.83;;;26.90;75.40;;;;;;5053787;28;20033;-54
2021/06/15 08:46:15;;;;;;;5.97;2.53;;;27.20;76.00;;;;;;5052515;28;20052;-54
2021/06/15 08:48:41;;;;;;;6.65;2.28;;;27.40;77.00;;;;;;5071730;28;20039;-53
2021/06/15 08:51:07;;;;;;;7.85;2.53;;;27.70;75.50;;;;;;5056017;28;20016;-53
2021/06/15 08:53:37;;;;;;;6.20;2.55;;;27.70;76.20;;;;;;5080205;28;20032;-54
2021/06/15 08:56:30;;;;;;;4.83;2.53;;;27.60;76.30;;;;;;5071779;28;20108;-53
2021/06/15 08:59:18;;;;;;;8.93;2.65;;;27.80;77.40;;;;;;5053017;28;20504;-53
2021/06/15 09:01:50;;;;;;;4.97;2.60;;;28.10;76.10;;;;;;5053391;28;20024;-53
2021/06/15 09:04:16;;;;;;;5.65;2.25;;;28.30;77.40;;;;;;5070458;28;20104;-54
2021/06/15 09:06:42;;;;;;;5.18;2.33;;;28.40;78.00;;;;;;5070910;28;20104;-54
2021/06/15 09:09:08;;;;;;;5.13;2.40;;;28.40;79.00;;;;;;5070625;28;20447;-54
2021/06/15 09:11:57;;;;;;;5.70;2.75;;;28.20;77.90;;;;;;5052236;28;20575;-53
2021/06/15 09:14:50;;;;;;;8.13;2.63;;;28.30;78.10;;;;;;5052016;28;20027;-53
2021/06/15 09:17:25;;;;;;;5.50;2.38;;;28.40;77.10;;;;;;5070462;28;20040;-54
2021/06/15 09:19:51;;;;;;;6.07;2.53;;;28.40;76.70;;;;;;5070903;28;20047;-54
2021/06/15 09:22:24;;;;;;;12.32;2.40;;;28.20;75.70;;;;;;5052416;28;20111;-53
2021/06/15 09:24:50;;;;;;;8.93;2.47;;;27.90;75.90;;;;;;5053080;28;20024;-53
2021/06/15 09:27:16;;;;;;;4.07;2.05;;;27.80;77.30;;;;;;5069901;28;20027;-56
2021/06/15 09:29:43;;;;;;;8.05;2.13;;;27.80;78.00;;;;;;5071213;28;20128;-53
2021/06/15 09:32:36;;;;;;;5.75;2.05;;;28.00;77.40;;;;;;5086665;28;20029;-53
2021/06/15 09:35:10;;;;;;;5.15;2.25;;;28.20;76.70;;;;;;5056137;28;20413;-53
2021/06/15 09:37:42;;;;;;;4.45;2.13;;;28.50;76.40;;;;;;5071486;28;20429;-53
2021/06/15 09:40:21;;;;;;;5.88;2.42;;;28.70;75.40;;;;;;5090868;28;20067;-53
2021/06/15 09:42:56;;;;;;;7.25;2.50;;;28.90;76.80;;;;;;5072424;28;20032;-53
2021/06/15 09:45:25;;;;;;;3.40;2.40;;;29.10;78.10;;;;;;5071359;28;20061;-53
2021/06/15 09:47:51;;;;;;;4.82;2.30;;;29.40;79.60;;;;;;5072504;28;20089;-53
2021/06/15 09:50:20;;;;;;;8.77;2.08;;;29.40;78.80;;;;;;5089906;28;20032;-54
2021/06/15 09:52:46;;;;;;;5.55;2.15;;;29.30;77.40;;;;;;5071991;28;20043;-53
2021/06/15 09:55:12;;;;;;;5.25;2.08;;;29.40;78.10;;;;;;5071880;28;20028;-84
2021/06/15 09:57:40;;;;;;;2.70;2.08;;;29.50;77.80;;;;;;5093680;28;20035;-85
2021/06/15 10:00:25;;;;;;;10.88;2.78;;;29.60;77.30;;;;;;5077114;28;20465;-83
2021/06/15 10:02:54;;;;;;;8.75;2.42;;;29.50;77.10;;;;;;5075592;28;20028;-84
2021/06/15 10:05:33;;;;;;;5.25;2.20;;;29.70;78.00;;;;;;5092770;28;20020;-84
2021/06/15 10:08:04;;;;;;;18.27;3.88;;;29.90;76.80;;;;;;5092828;28;20100;-84
2021/06/15 10:10:36;;;;;;;6.13;3.00;;;30.00;77.40;;;;;;5072684;28;20032;-77
2021/06/15 10:13:03;;;;;;;9.15;2.72;;;30.20;77.30;;;;;;5072349;28;20086;-79
2021/06/15 10:15:30;;;;;;;10.98;2.88;;;30.40;77.50;;;;;;5089957;28;20039;-80
2021/06/15 10:17:57;;;;;;;5.65;2.70;;;30.60;78.70;;;;;;5071898;28;20048;-80
2021/06/15 10:20:26;;;;;;;5.15;3.08;;;30.40;73.80;;;;;;5072175;28;20127;-79
2021/06/15 10:22:53;;;;;;;12.35;2.53;;;30.30;73.50;;;;;;5056127;28;20051;-79
2021/06/15 10:25:21;;;;;;;4.55;2.25;;;30.20;73.50;;;;;;5071130;28;20334;-77
2021/06/15 10:27:50;;;;;;;11.43;3.63;;;29.90;72.60;;;;;;5071762;28;20024;-80
2021/06/15 10:30:19;;;;;;;4.85;2.50;;;29.90;73.20;;;;;;5071983;28;20028;-75
2021/06/15 10:32:55;;;;;;;2.63;1.97;;;29.80;73.50;;;;;;5090503;28;20027;-75
2021/06/15 10:35:43;;;;;;;8.40;3.20;;;30.00;72.90;;;;;;5089590;28;20085;-76
2021/06/15 10:38:16;;;;;;;4.78;2.70;;;30.50;72.00;;;;;;5072657;28;20027;-76
2021/06/15 10:40:46;;;;;;;4.45;2.00;;;30.80;71.20;;;;;;5089304;28;20089;-78
2021/06/15 10:43:21;;;;;;;9.07;2.33;;;31.00;71.70;;;;;;5090092;28;20027;-77
2021/06/15 10:45:53;;;;;;;4.88;2.20;;;31.10;70.40;;;;;;5067927;28;20125;-76
2021/06/15 10:48:20;;;;;;;5.22;2.03;;;31.30;70.70;;;;;;5066998;28;20154;-76
2021/06/15 10:50:48;;;;;;;4.00;2.20;;;31.70;71.00;;;;;;5067313;28;20036;-77
2021/06/15 10:53:16;;;;;;;6.40;2.17;;;31.70;72.20;;;;;;5067514;28;20032;-76
2021/06/15 10:55:53;;;;;;;7.30;2.53;;;31.70;72.00;;;;;;5050610;28;20043;-76
2021/06/15 10:58:42;;;;;;;4.53;2.17;;;31.90;71.70;;;;;;5049884;28;20028;-76
2021/06/15 11:01:23;;;;;;;8.50;2.88;;;32.10;70.20;;;;;;5050343;28;20045;-77
2021/06/15 11:04:12;;;;;;;6.68;2.22;;;32.40;69.40;;;;;;5067663;28;20101;-76
2021/06/15 11:06:43;;;;;;;5.13;2.55;;;32.60;68.10;;;;;;5049693;28;20094;-75
2021/06/15 11:09:15;;;;;;;5.68;2.10;;;32.50;63.30;;;;;;5050472;28;20032;-77
2021/06/15 11:12:04;;;;;;;4.03;2.13;;;32.50;63.20;;;;;;5049799;28;20033;-75
2021/06/15 11:14:30;;;;;;;5.88;2.15;;;32.50;62.80;;;;;;5052684;28;20137;-75
2021/06/15 11:17:00;;;;;;;3.60;2.50;;;32.60;63.60;;;;;;5083977;28;20076;-75
2021/06/15 11:19:26;;;;;;;3.85;2.13;;;32.60;60.00;;;;;;5093408;28;20040;-75
2021/06/15 11:22:07;;;;;;;4.65;2.55;;;32.70;59.80;;;;;;5108543;28;20039;-75
2021/06/15 11:24:45;;;;;;;3.53;1.77;;;32.80;59.40;;;;;;5107857;28;20110;-76
2021/06/15 11:27:29;;;;;;;5.13;2.22;;;32.70;60.10;;;;;;5108975;28;20483;-75
2021/06/15 11:29:59;;;;;;;2.05;1.73;;;32.90;60.10;;;;;;5075029;28;20028;-74
2021/06/15 11:32:27;;;;;;;6.63;2.28;;;32.80;58.40;;;;;;5074715;28;20020;-74
2021/06/15 11:35:02;;;;;;;4.50;1.88;;;32.80;58.90;;;;;;5093138;28;20031;-75
2021/06/15 11:37:38;;;;;;;6.97;3.03;;;32.60;57.10;;;;;;5108587;28;20024;-76
2021/06/15 11:40:29;;;;;;;2.33;1.95;;;32.50;57.60;;;;;;5109405;28;20499;-76
2021/06/15 11:43:07;;;;;;;7.15;2.60;;;32.50;57.30;;;;;;5074933;28;20028;-75
2021/06/15 11:45:40;;;;;;;4.75;2.60;;;32.60;56.60;;;;;;5108211;28;20024;-74
2021/06/15 11:48:35;;;;;;;4.20;2.53;;;32.70;57.60;;;;;;5074604;28;20032;-76
2021/06/15 11:51:06;;;;;;;3.35;2.40;;;32.90;58.20;;;;;;5074779;28;20130;-76
2021/06/15 11:53:36;;;;;;;10.63;3.20;;;33.00;58.70;;;;;;5074197;28;20103;-76
2021/06/15 11:56:05;;;;;;;9.40;2.47;;;32.90;57.90;;;;;;5075116;28;20488;-75
2021/06/15 11:58:35;;;;;;;4.43;2.40;;;33.10;57.10;;;;;;5074391;28;20477;-73
2021/06/15 12:01:13;;;;;;;4.63;3.05;;;33.20;57.70;;;;;;5073345;28;20024;-73
2021/06/15 12:03:41;;;;;;;10.57;2.70;;;32.70;56.30;;;;;;5107033;28;20020;-73
2021/06/15 12:06:08;;;;;;;8.23;2.88;;;32.50;57.50;;;;;;5074131;28;20047;-75
2021/06/15 12:08:43;;;;;;;6.55;2.30;;;32.40;58.00;;;;;;5072243;28;20076;-73
2021/06/15 12:11:14;;;;;;;6.90;3.00;;;32.70;58.60;;;;;;5073577;28;20058;-75
2021/06/15 12:13:40;;;;;;;2.22;1.83;;;32.90;59.30;;;;;;5072738;28;20370;-74
2021/06/15 12:16:15;;;;;;;8.23;2.40;;;33.20;59.10;;;;;;5074044;28;20057;-73
2021/06/15 12:18:46;;;;;;;5.05;2.75;;;32.90;57.40;;;;;;5072397;28;20113;-72
2021/06/15 12:21:30;;;;;;;9.32;2.63;;;32.30;57.90;;;;;;5091892;28;20046;-74
2021/06/15 12:24:00;;;;;;;8.48;2.47;;;32.20;58.50;;;;;;5072376;28;20020;-74
2021/06/15 12:26:36;;;;;;;5.73;2.73;;;31.90;58.60;;;;;;5106546;28;20042;-73
2021/06/15 12:29:05;;;;;;;8.77;3.05;;;31.80;58.60;;;;;;5092158;28;20111;-74
2021/06/15 12:31:49;;;;;;;4.77;2.60;;;31.80;58.80;;;;;;5072582;28;20299;-73
2021/06/15 12:34:17;;;;;;;4.47;2.45;;;32.00;59.70;;;;;;5073260;28;20274;-75
2021/06/15 12:36:46;;;;;;;3.38;2.10;;;32.00;59.80;;;;;;5091269;28;20028;-73
2021/06/15 12:39:16;;;;;;;5.22;3.20;;;32.30;59.80;;;;;;5073064;28;20059;-73
2021/06/15 12:41:55;;;;;;;7.75;2.25;;;32.00;59.20;;;;;;5072311;28;20024;-74
2021/06/15 12:44:40;;;;;;;7.47;3.03;;;31.80;58.90;;;;;;5106342;28;20024;-74
2021/06/15 12:47:12;;;;;;;3.75;2.60;;;31.80;59.40;;;;;;5106849;28;20067;-74
2021/06/15 12:49:51;;;;;;;5.68;2.38;;;31.20;59.50;;;;;;5091219;28;20036;-75
2021/06/15 12:52:17;;;;;;;4.53;2.58;;;31.00;60.30;;;;;;5072704;28;20385;-73
2021/06/15 12:54:45;;;;;;;6.15;3.30;;;30.70;61.50;;;;;;5090347;28;20020;-73
2021/06/15 12:57:20;;;;;;;6.78;3.03;;;30.60;62.30;;;;;;5072777;28;20024;-74
2021/06/15 13:00:00;;;;;;;9.27;3.17;;;30.90;62.90;;;;;;5091092;28;20031;-75
2021/06/15 13:02:27;;;;;;;6.00;2.58;;;31.40;60.30;;;;;;5104684;28;20593;-73
2021/06/15 13:04:54;;;;;;;5.95;2.63;;;31.40;60.50;;;;;;5072819;28;20067;-75